createdAt,value
2018-09-18T00:00:11.596Z,0.00
2018-09-18T00:01:11.745Z,0.00
2018-09-18T00:02:11.895Z,0.00
2018-09-18T00:03:12.048Z,0.00
2018-09-18T00:04:12.199Z,0.00
2018-09-18T00:05:12.349Z,0.00
2018-09-18T00:06:12.499Z,0.00
2018-09-18T00:07:12.649Z,0.00
2018-09-18T00:08:12.800Z,0.00
2018-09-18T00:09:12.953Z,0.00
2018-09-18T00:10:13.103Z,0.00
2018-09-18T00:11:13.252Z,0.00
2018-09-18T00:12:13.406Z,0.00
2018-09-18T00:13:13.553Z,0.00
2018-09-18T00:14:13.704Z,0.00
2018-09-18T00:15:13.854Z,0.00
2018-09-18T00:16:14.003Z,0.00
2018-09-18T00:17:14.154Z,0.00
2018-09-18T00:18:14.304Z,0.00
2018-09-18T00:19:14.456Z,0.00
2018-09-18T00:20:14.607Z,0.00
2018-09-18T00:21:14.756Z,0.00
2018-09-18T00:22:14.908Z,0.00
2018-09-18T00:23:15.059Z,0.00
2018-09-18T00:24:15.212Z,0.00
2018-09-18T00:25:15.360Z,0.00
2018-09-18T00:26:15.510Z,0.00
2018-09-18T00:27:15.662Z,0.00
2018-09-18T00:28:15.812Z,0.00
2018-09-18T00:29:15.962Z,0.00
2018-09-18T00:30:16.123Z,0.00
2018-09-18T00:31:16.262Z,0.00
2018-09-18T00:32:16.414Z,0.00
2018-09-18T00:33:16.566Z,0.00
2018-09-18T00:34:16.715Z,0.00
2018-09-18T00:35:16.865Z,0.00
2018-09-18T00:36:17.017Z,0.00
2018-09-18T00:37:17.167Z,0.00
2018-09-18T00:38:17.316Z,0.00
2018-09-18T00:39:17.466Z,0.00
2018-09-18T00:40:17.621Z,0.00
2018-09-18T00:41:17.767Z,0.00
2018-09-18T00:42:17.917Z,0.00
2018-09-18T00:43:18.069Z,0.00
2018-09-18T00:44:18.219Z,0.00
2018-09-18T00:45:18.368Z,0.00
2018-09-18T00:46:18.518Z,0.00
2018-09-18T00:47:18.674Z,0.00
2018-09-18T00:48:18.823Z,0.00
2018-09-18T00:49:18.979Z,0.00
2018-09-18T00:50:19.127Z,0.00
2018-09-18T00:51:19.279Z,0.00
2018-09-18T00:52:19.429Z,0.00
2018-09-18T00:53:19.579Z,0.00
2018-09-18T00:54:19.728Z,0.00
2018-09-18T00:55:19.879Z,0.00
2018-09-18T00:56:20.028Z,0.00
2018-09-18T00:57:20.179Z,0.00
2018-09-18T00:58:20.331Z,0.00
2018-09-18T00:59:20.482Z,0.00
2018-09-18T01:00:20.633Z,0.00
2018-09-18T01:01:20.784Z,0.00
2018-09-18T01:02:20.936Z,0.00
2018-09-18T01:03:21.089Z,0.00
2018-09-18T01:04:21.235Z,0.00
2018-09-18T01:05:21.385Z,0.00
2018-09-18T01:06:21.535Z,0.00
2018-09-18T01:07:21.687Z,0.00
2018-09-18T01:08:21.834Z,0.00
2018-09-18T01:09:21.987Z,0.00
2018-09-18T01:10:22.139Z,0.00
2018-09-18T01:11:22.288Z,0.00
2018-09-18T01:12:22.443Z,0.00
2018-09-18T01:13:22.587Z,0.00
2018-09-18T01:14:22.746Z,0.00
2018-09-18T01:15:22.888Z,0.00
2018-09-18T01:16:23.041Z,0.00
2018-09-18T01:17:23.191Z,0.00
2018-09-18T01:18:23.340Z,0.00
2018-09-18T01:19:23.490Z,0.00
2018-09-18T01:20:23.645Z,0.00
2018-09-18T01:21:23.795Z,0.00
2018-09-18T01:22:23.945Z,0.00
2018-09-18T01:23:24.092Z,0.00
2018-09-18T01:24:24.241Z,0.00
2018-09-18T01:25:24.389Z,0.00
2018-09-18T01:26:24.540Z,0.00
2018-09-18T01:27:24.687Z,0.00
2018-09-18T01:28:24.843Z,0.00
2018-09-18T01:29:24.987Z,0.00
2018-09-18T01:30:25.137Z,0.00
2018-09-18T01:31:25.286Z,0.00
2018-09-18T01:32:25.437Z,0.00
2018-09-18T01:33:25.584Z,0.00
2018-09-18T01:34:25.735Z,0.00
2018-09-18T01:35:25.885Z,0.00
2018-09-18T01:36:26.033Z,0.00
2018-09-18T01:37:26.184Z,0.00
2018-09-18T01:38:26.337Z,0.00
2018-09-18T01:39:26.490Z,0.00
2018-09-18T01:40:26.632Z,0.00
2018-09-18T01:41:26.782Z,0.00
2018-09-18T01:42:26.931Z,0.00
2018-09-18T01:43:27.089Z,0.00
2018-09-18T01:44:27.233Z,0.00
2018-09-18T01:45:27.383Z,0.00
2018-09-18T01:46:27.532Z,0.00
2018-09-18T01:47:27.684Z,0.00
2018-09-18T01:48:27.838Z,0.00
2018-09-18T01:49:27.983Z,0.00
2018-09-18T01:50:28.135Z,0.00
2018-09-18T01:51:28.291Z,0.00
2018-09-18T01:52:28.437Z,0.00
2018-09-18T01:53:28.587Z,0.00
2018-09-18T01:54:28.737Z,0.00
2018-09-18T01:55:28.889Z,0.00
2018-09-18T01:56:29.040Z,0.00
2018-09-18T01:57:29.188Z,0.00
2018-09-18T01:58:29.338Z,0.00
2018-09-18T01:59:29.491Z,0.00
2018-09-18T02:00:29.639Z,0.00
2018-09-18T02:01:29.791Z,0.00
2018-09-18T02:02:29.942Z,0.00
2018-09-18T02:03:30.090Z,0.00
2018-09-18T02:04:30.242Z,0.00
2018-09-18T02:05:30.394Z,0.00
2018-09-18T02:06:30.545Z,0.00
2018-09-18T02:07:30.698Z,0.00
2018-09-18T02:08:30.845Z,0.00
2018-09-18T02:09:30.999Z,0.00
2018-09-18T02:10:31.145Z,0.00
2018-09-18T02:11:31.294Z,0.00
2018-09-18T02:12:31.444Z,0.00
2018-09-18T02:13:31.597Z,0.00
2018-09-18T02:14:31.748Z,0.00
2018-09-18T02:15:31.890Z,0.00
2018-09-18T02:16:32.041Z,0.00
2018-09-18T02:17:32.192Z,0.00
2018-09-18T02:18:32.343Z,0.00
2018-09-18T02:19:32.493Z,0.00
2018-09-18T02:20:32.640Z,0.00
2018-09-18T02:21:32.792Z,0.00
2018-09-18T02:22:32.944Z,0.00
2018-09-18T02:23:33.092Z,0.00
2018-09-18T02:24:33.240Z,0.00
2018-09-18T02:25:33.392Z,0.00
2018-09-18T02:26:33.539Z,0.00
2018-09-18T02:27:33.691Z,0.00
2018-09-18T02:28:33.840Z,0.00
2018-09-18T02:29:33.991Z,0.00
2018-09-18T02:30:34.141Z,0.00
2018-09-18T02:31:34.293Z,0.00
2018-09-18T02:32:34.447Z,0.00
2018-09-18T02:33:34.593Z,0.00
2018-09-18T02:34:34.738Z,0.00
2018-09-18T02:35:34.890Z,0.00
2018-09-18T02:36:35.055Z,0.00
2018-09-18T02:37:35.190Z,0.00
2018-09-18T02:38:35.342Z,0.00
2018-09-18T02:39:35.488Z,0.00
2018-09-18T02:40:35.638Z,0.00
2018-09-18T02:41:35.792Z,0.00
2018-09-18T02:42:35.937Z,0.00
2018-09-18T02:43:36.090Z,0.00
2018-09-18T02:44:36.238Z,0.00
2018-09-18T02:45:36.390Z,0.00
2018-09-18T02:46:36.540Z,0.00
2018-09-18T02:47:36.692Z,0.00
2018-09-18T02:48:36.842Z,0.00
2018-09-18T02:49:36.991Z,0.00
2018-09-18T02:50:37.138Z,0.00
2018-09-18T02:51:37.287Z,0.00
2018-09-18T02:52:37.436Z,0.00
2018-09-18T02:53:37.583Z,0.00
2018-09-18T02:54:37.737Z,0.00
2018-09-18T02:55:37.886Z,0.00
2018-09-18T02:56:38.037Z,0.00
2018-09-18T02:57:38.188Z,0.00
2018-09-18T02:58:38.336Z,0.00
2018-09-18T02:59:38.486Z,0.00
2018-09-18T03:00:38.637Z,0.00
2018-09-18T03:01:38.787Z,0.00
2018-09-18T03:02:38.938Z,0.00
2018-09-18T03:03:39.088Z,0.00
2018-09-18T03:04:39.234Z,0.00
2018-09-18T03:05:39.385Z,0.00
2018-09-18T03:06:39.534Z,0.00
2018-09-18T03:07:39.687Z,0.00
2018-09-18T03:08:39.838Z,0.00
2018-09-18T03:09:39.988Z,0.00
2018-09-18T03:10:40.139Z,0.00
2018-09-18T03:11:40.289Z,0.00
2018-09-18T03:12:40.439Z,0.00
2018-09-18T03:13:40.591Z,0.00
2018-09-18T03:14:40.740Z,0.00
2018-09-18T03:15:40.892Z,0.00
2018-09-18T03:16:41.043Z,0.00
2018-09-18T03:17:41.192Z,0.00
2018-09-18T03:18:41.342Z,0.00
2018-09-18T03:19:41.492Z,0.00
2018-09-18T03:20:41.640Z,0.00
2018-09-18T03:21:41.792Z,0.00
2018-09-18T03:22:41.945Z,0.00
2018-09-18T03:23:42.088Z,0.00
2018-09-18T03:24:42.238Z,0.00
2018-09-18T03:25:42.390Z,0.00
2018-09-18T03:26:42.540Z,0.00
2018-09-18T03:27:42.691Z,0.00
2018-09-18T03:28:42.840Z,0.00
2018-09-18T03:29:42.990Z,0.00
2018-09-18T03:30:43.142Z,0.00
2018-09-18T03:31:43.295Z,0.00
2018-09-18T03:32:43.442Z,0.00
2018-09-18T03:33:43.588Z,0.00
2018-09-18T03:34:43.746Z,0.00
2018-09-18T03:35:43.983Z,0.00
2018-09-18T03:36:44.043Z,0.00
2018-09-18T03:37:44.192Z,0.00
2018-09-18T03:38:44.341Z,0.00
2018-09-18T03:39:44.493Z,0.00
2018-09-18T03:40:44.641Z,0.00
2018-09-18T03:41:44.793Z,0.00
2018-09-18T03:42:44.943Z,0.00
2018-09-18T03:43:45.092Z,0.00
2018-09-18T03:44:45.243Z,0.00
2018-09-18T03:45:45.390Z,0.00
2018-09-18T03:46:45.544Z,0.00
2018-09-18T03:47:45.689Z,0.00
2018-09-18T03:48:45.835Z,0.00
2018-09-18T03:49:45.995Z,0.00
2018-09-18T03:50:46.133Z,0.00
2018-09-18T03:51:46.281Z,0.00
2018-09-18T03:52:46.430Z,0.00
2018-09-18T03:53:46.580Z,0.00
2018-09-18T03:54:46.732Z,0.00
2018-09-18T03:55:46.881Z,0.00
2018-09-18T03:56:47.036Z,0.00
2018-09-18T03:57:47.207Z,0.00
2018-09-18T03:58:47.319Z,0.00
2018-09-18T03:59:47.457Z,0.00
2018-09-18T04:00:47.604Z,0.00
2018-09-18T04:01:47.752Z,0.00
2018-09-18T04:02:47.980Z,0.00
2018-09-18T04:03:48.051Z,0.00
2018-09-18T04:04:48.198Z,0.00
2018-09-18T04:05:48.346Z,0.00
2018-09-18T04:06:48.496Z,0.00
2018-09-18T04:07:48.644Z,0.00
2018-09-18T04:08:48.793Z,0.00
2018-09-18T04:09:48.942Z,0.00
2018-09-18T04:10:49.166Z,0.00
2018-09-18T04:11:49.272Z,0.00
2018-09-18T04:12:49.422Z,0.00
2018-09-18T04:13:49.573Z,0.00
2018-09-18T04:14:49.718Z,0.00
2018-09-18T04:15:49.873Z,0.00
2018-09-18T04:16:50.017Z,0.00
2018-09-18T04:17:50.167Z,0.00
2018-09-18T04:18:50.317Z,0.00
2018-09-18T04:19:50.466Z,0.00
2018-09-18T04:20:50.615Z,0.00
2018-09-18T04:21:50.766Z,0.00
2018-09-18T04:22:50.914Z,0.00
2018-09-18T04:23:51.063Z,0.00
2018-09-18T04:24:51.212Z,0.00
2018-09-18T04:25:51.372Z,0.00
2018-09-18T04:26:51.521Z,0.00
2018-09-18T04:27:51.670Z,0.00
2018-09-18T04:28:51.819Z,0.00
2018-09-18T04:29:51.972Z,0.00
2018-09-18T04:30:52.120Z,4.00
2018-09-18T04:31:52.272Z,4.00
2018-09-18T04:32:52.426Z,4.00
2018-09-18T04:33:52.568Z,4.00
2018-09-18T04:34:52.715Z,4.00
2018-09-18T04:35:52.867Z,8.00
2018-09-18T04:36:53.020Z,4.00
2018-09-18T04:37:53.165Z,4.00
2018-09-18T04:38:53.310Z,8.00
2018-09-18T04:39:53.465Z,12.00
2018-09-18T04:40:53.608Z,12.00
2018-09-18T04:41:53.761Z,12.00
2018-09-18T04:42:53.910Z,20.00
2018-09-18T04:43:54.061Z,24.00
2018-09-18T04:44:54.209Z,24.00
2018-09-18T04:45:54.419Z,32.00
2018-09-18T04:46:54.508Z,36.00
2018-09-18T04:47:54.658Z,40.00
2018-09-18T04:48:54.810Z,48.00
2018-09-18T04:49:54.947Z,56.00
2018-09-18T04:50:55.097Z,64.00
2018-09-18T04:51:55.248Z,72.00
2018-09-18T04:52:55.394Z,84.00
2018-09-18T04:53:55.543Z,92.00
2018-09-18T04:54:55.780Z,104.00
2018-09-18T04:55:55.847Z,112.00
2018-09-18T04:56:55.999Z,128.00
2018-09-18T04:57:56.142Z,140.00
2018-09-18T04:58:56.289Z,152.00
2018-09-18T04:59:56.445Z,168.00
2018-09-18T05:00:56.587Z,184.00
2018-09-18T05:01:56.790Z,196.00
2018-09-18T05:02:56.884Z,216.00
2018-09-18T05:03:57.033Z,232.00
2018-09-18T05:04:57.185Z,248.00
2018-09-18T05:05:57.333Z,264.00
2018-09-18T05:06:57.483Z,284.00
2018-09-18T05:07:57.633Z,304.00
2018-09-18T05:08:57.779Z,328.00
2018-09-18T05:09:57.936Z,352.00
2018-09-18T05:10:58.077Z,384.00
2018-09-18T05:11:58.224Z,412.00
2018-09-18T05:12:58.373Z,444.00
2018-09-18T05:13:58.584Z,476.00
2018-09-18T05:14:58.676Z,516.00
2018-09-18T05:15:58.825Z,556.00
2018-09-18T05:16:58.975Z,600.00
2018-09-18T05:17:59.123Z,648.00
2018-09-18T05:18:59.275Z,700.00
2018-09-18T05:19:59.433Z,748.00
2018-09-18T05:20:59.575Z,800.00
2018-09-18T05:21:59.721Z,852.00
2018-09-18T05:22:59.870Z,908.00
2018-09-18T05:24:00.018Z,964.00
2018-09-18T05:25:00.168Z,1024.00
2018-09-18T05:26:00.320Z,1080.00
2018-09-18T05:27:00.469Z,1144.00
2018-09-18T05:28:00.621Z,1196.00
2018-09-18T05:29:00.769Z,1256.00
2018-09-18T05:30:00.916Z,1308.00
2018-09-18T05:31:01.067Z,1360.00
2018-09-18T05:32:01.244Z,1416.00
2018-09-18T05:33:01.398Z,1480.00
2018-09-18T05:34:01.556Z,1540.00
2018-09-18T05:35:01.699Z,1588.00
2018-09-18T05:36:01.846Z,1640.00
2018-09-18T05:37:02.002Z,1680.00
2018-09-18T05:38:02.139Z,1724.00
2018-09-18T05:39:02.291Z,1764.00
2018-09-18T05:40:02.440Z,1808.00
2018-09-18T05:41:02.597Z,1848.00
2018-09-18T05:42:02.748Z,1888.00
2018-09-18T05:43:02.892Z,1924.00
2018-09-18T05:44:03.041Z,1964.00
2018-09-18T05:45:03.191Z,1996.00
2018-09-18T05:46:03.341Z,2032.00
2018-09-18T05:47:03.492Z,2064.00
2018-09-18T05:48:03.657Z,2096.00
2018-09-18T05:49:03.791Z,2132.00
2018-09-18T05:50:03.939Z,2160.00
2018-09-18T05:51:04.088Z,2188.00
2018-09-18T05:52:04.237Z,2220.00
2018-09-18T05:53:04.385Z,2256.00
2018-09-18T05:54:04.537Z,2280.00
2018-09-18T05:55:04.687Z,2316.00
2018-09-18T05:56:04.834Z,2344.00
2018-09-18T05:57:04.984Z,2372.00
2018-09-18T05:58:05.134Z,2400.00
2018-09-18T05:59:05.284Z,2428.00
2018-09-18T06:00:05.435Z,2456.00
2018-09-18T06:01:05.589Z,2488.00
2018-09-18T06:02:05.795Z,2512.00
2018-09-18T06:03:05.884Z,2544.00
2018-09-18T06:04:06.034Z,2572.00
2018-09-18T06:05:06.186Z,2600.00
2018-09-18T06:06:06.334Z,2628.00
2018-09-18T06:07:06.483Z,2648.00
2018-09-18T06:08:06.635Z,2676.00
2018-09-18T06:09:06.785Z,2696.00
2018-09-18T06:10:06.936Z,2720.00
2018-09-18T06:11:07.085Z,2744.00
2018-09-18T06:12:07.234Z,2768.00
2018-09-18T06:13:07.383Z,2796.00
2018-09-18T06:14:07.532Z,2816.00
2018-09-18T06:15:07.684Z,2840.00
2018-09-18T06:16:07.832Z,2856.00
2018-09-18T06:17:07.983Z,2876.00
2018-09-18T06:18:08.133Z,2892.00
2018-09-18T06:19:08.355Z,2908.00
2018-09-18T06:20:08.429Z,2932.00
2018-09-18T06:21:08.578Z,2948.00
2018-09-18T06:22:08.727Z,2968.00
2018-09-18T06:23:08.879Z,2984.00
2018-09-18T06:24:09.028Z,3004.00
2018-09-18T06:25:09.176Z,3020.00
2018-09-18T06:26:09.341Z,3040.00
2018-09-18T06:27:09.478Z,3056.00
2018-09-18T06:28:09.628Z,3076.00
2018-09-18T06:29:09.780Z,3096.00
2018-09-18T06:30:09.930Z,3116.00
2018-09-18T06:31:10.081Z,3128.00
2018-09-18T06:32:10.230Z,3144.00
2018-09-18T06:33:10.382Z,3164.00
2018-09-18T06:34:10.528Z,3172.00
2018-09-18T06:35:10.679Z,3184.00
2018-09-18T06:36:10.828Z,3196.00
2018-09-18T06:37:10.978Z,3212.00
2018-09-18T06:38:11.131Z,3220.00
2018-09-18T06:39:11.278Z,3240.00
2018-09-18T06:40:11.431Z,3252.00
2018-09-18T06:41:11.582Z,3264.00
2018-09-18T06:42:11.777Z,3280.00
2018-09-18T06:43:11.881Z,3288.00
2018-09-18T06:44:12.029Z,3304.00
2018-09-18T06:45:12.181Z,3320.00
2018-09-18T06:46:12.333Z,3328.00
2018-09-18T06:47:12.483Z,3340.00
2018-09-18T06:48:12.643Z,3352.00
2018-09-18T06:49:12.785Z,3364.00
2018-09-18T06:50:12.935Z,3376.00
2018-09-18T06:51:13.088Z,3388.00
2018-09-18T06:52:13.234Z,3404.00
2018-09-18T06:53:13.387Z,3416.00
2018-09-18T06:54:13.537Z,3428.00
2018-09-18T06:55:13.690Z,3436.00
2018-09-18T06:56:13.836Z,3452.00
2018-09-18T06:57:13.992Z,3460.00
2018-09-18T06:58:14.140Z,3472.00
2018-09-18T06:59:14.292Z,3484.00
2018-09-18T07:00:14.441Z,3496.00
2018-09-18T07:01:14.593Z,3508.00
2018-09-18T07:02:14.746Z,3520.00
2018-09-18T07:03:14.893Z,3532.00
2018-09-18T07:04:15.047Z,3540.00
2018-09-18T07:05:15.199Z,3548.00
2018-09-18T07:06:15.353Z,3556.00
2018-09-18T07:07:15.500Z,3568.00
2018-09-18T07:08:15.650Z,3572.00
2018-09-18T07:09:15.801Z,3584.00
2018-09-18T07:10:15.954Z,3592.00
2018-09-18T07:11:16.104Z,3604.00
2018-09-18T07:12:16.254Z,3612.00
2018-09-18T07:13:16.407Z,3620.00
2018-09-18T07:14:16.557Z,3632.00
2018-09-18T07:15:16.708Z,3644.00
2018-09-18T07:16:16.859Z,3648.00
2018-09-18T07:17:17.010Z,3664.00
2018-09-18T07:18:17.168Z,3668.00
2018-09-18T07:19:17.316Z,3684.00
2018-09-18T07:20:17.468Z,3692.00
2018-09-18T07:21:17.616Z,3696.00
2018-09-18T07:22:17.767Z,3708.00
2018-09-18T07:23:17.921Z,3716.00
2018-09-18T07:24:18.069Z,3728.00
2018-09-18T07:25:18.224Z,3740.00
2018-09-18T07:26:18.373Z,3748.00
2018-09-18T07:27:18.525Z,3756.00
2018-09-18T07:28:18.676Z,3764.00
2018-09-18T07:29:18.845Z,3768.00
2018-09-18T07:30:18.980Z,3780.00
2018-09-18T07:31:19.129Z,3792.00
2018-09-18T07:32:19.282Z,3796.00
2018-09-18T07:33:19.432Z,3800.00
2018-09-18T07:34:19.569Z,3812.00
2018-09-18T07:35:19.746Z,3816.00
2018-09-18T07:36:19.897Z,3824.00
2018-09-18T07:37:20.047Z,3832.00
2018-09-18T07:38:20.198Z,3840.00
2018-09-18T07:39:20.351Z,3848.00
2018-09-18T07:40:20.506Z,3856.00
2018-09-18T07:41:20.658Z,3860.00
2018-09-18T07:42:20.812Z,3864.00
2018-09-18T07:43:20.966Z,3872.00
2018-09-18T07:44:21.116Z,3876.00
2018-09-18T07:45:21.268Z,3888.00
2018-09-18T07:46:21.420Z,3896.00
2018-09-18T07:47:21.570Z,3900.00
2018-09-18T07:48:21.722Z,3908.00
2018-09-18T07:49:21.877Z,3916.00
2018-09-18T07:50:22.034Z,3920.00
2018-09-18T07:51:22.180Z,3928.00
2018-09-18T07:52:22.404Z,3936.00
2018-09-18T07:53:22.485Z,3940.00
2018-09-18T07:54:22.640Z,3952.00
2018-09-18T07:55:22.791Z,3960.00
2018-09-18T07:56:22.943Z,3968.00
2018-09-18T07:57:23.096Z,3976.00
2018-09-18T07:58:23.248Z,3980.00
2018-09-18T07:59:23.400Z,3984.00
2018-09-18T08:00:23.556Z,3992.00
2018-09-18T08:01:23.709Z,3996.00
2018-09-18T08:02:23.860Z,4008.00
2018-09-18T08:03:24.011Z,4008.00
2018-09-18T08:04:24.161Z,4016.00
2018-09-18T08:05:24.317Z,4024.00
2018-09-18T08:06:24.471Z,4028.00
2018-09-18T08:07:24.623Z,4032.00
2018-09-18T08:08:24.778Z,4044.00
2018-09-18T08:09:24.930Z,4052.00
2018-09-18T08:10:25.082Z,4056.00
2018-09-18T08:11:25.238Z,4056.00
2018-09-18T08:12:25.388Z,4060.00
2018-09-18T08:13:25.542Z,4068.00
2018-09-18T08:14:25.695Z,4068.00
2018-09-18T08:15:25.847Z,4076.00
2018-09-18T08:16:26.000Z,4080.00
2018-09-18T08:17:26.154Z,4080.00
2018-09-18T08:18:26.310Z,4088.00
2018-09-18T08:19:26.526Z,4092.00
2018-09-18T08:20:26.612Z,4096.00
2018-09-18T08:21:26.767Z,4108.00
2018-09-18T08:22:26.919Z,4112.00
2018-09-18T08:23:27.081Z,4112.00
2018-09-18T08:24:27.227Z,4124.00
2018-09-18T08:25:27.429Z,4128.00
2018-09-18T08:26:27.534Z,4132.00
2018-09-18T08:27:27.687Z,4136.00
2018-09-18T08:28:27.841Z,4144.00
2018-09-18T08:29:27.995Z,4148.00
2018-09-18T08:30:28.148Z,4156.00
2018-09-18T08:31:28.301Z,4164.00
2018-09-18T08:32:28.488Z,4176.00
2018-09-18T08:33:28.609Z,4176.00
2018-09-18T08:34:28.762Z,4176.00
2018-09-18T08:35:28.917Z,4180.00
2018-09-18T08:36:29.069Z,4192.00
2018-09-18T08:37:29.224Z,4192.00
2018-09-18T08:38:29.379Z,4204.00
2018-09-18T08:39:29.546Z,4204.00
2018-09-18T08:40:29.710Z,4208.00
2018-09-18T08:41:29.866Z,4208.00
2018-09-18T08:42:29.995Z,4212.00
2018-09-18T08:43:30.159Z,4216.00
2018-09-18T08:44:30.336Z,4220.00
2018-09-18T08:45:30.485Z,4220.00
2018-09-18T08:46:30.615Z,4224.00
2018-09-18T08:47:30.768Z,4224.00
2018-09-18T08:48:30.938Z,4224.00
2018-09-18T08:49:31.080Z,4224.00
2018-09-18T08:50:31.233Z,4232.00
2018-09-18T08:51:31.389Z,4236.00
2018-09-18T08:52:31.543Z,4240.00
2018-09-18T08:53:31.711Z,4244.00
2018-09-18T08:54:31.898Z,4248.00
2018-09-18T08:55:32.013Z,4256.00
2018-09-18T08:56:32.167Z,4256.00
2018-09-18T08:57:32.318Z,4256.00
2018-09-18T08:58:32.483Z,4264.00
2018-09-18T08:59:32.626Z,4264.00
2018-09-18T09:00:32.780Z,4268.00
2018-09-18T09:01:32.934Z,4276.00
2018-09-18T09:02:33.091Z,4284.00
2018-09-18T09:03:33.279Z,4284.00
2018-09-18T09:04:33.431Z,4288.00
2018-09-18T09:05:33.555Z,4296.00
2018-09-18T09:06:33.754Z,4300.00
2018-09-18T09:07:33.955Z,4300.00
2018-09-18T09:08:34.072Z,4308.00
2018-09-18T09:09:34.180Z,4308.00
2018-09-18T09:10:34.394Z,4308.00
2018-09-18T09:11:34.492Z,4312.00
2018-09-18T09:12:34.645Z,4312.00
2018-09-18T09:13:34.810Z,4320.00
2018-09-18T09:14:34.991Z,4324.00
2018-09-18T09:15:35.150Z,4332.00
2018-09-18T09:16:35.270Z,4332.00
2018-09-18T09:17:35.427Z,4336.00
2018-09-18T09:18:35.656Z,4336.00
2018-09-18T09:19:35.780Z,4340.00
2018-09-18T09:20:35.894Z,4344.00
2018-09-18T09:21:36.050Z,4344.00
2018-09-18T09:22:36.259Z,4344.00
2018-09-18T09:23:36.361Z,4344.00
2018-09-18T09:24:36.517Z,4344.00
2018-09-18T09:25:36.695Z,4340.00
2018-09-18T09:26:36.891Z,4340.00
2018-09-18T09:27:37.037Z,4340.00
2018-09-18T09:28:37.158Z,4340.00
2018-09-18T09:29:37.340Z,4340.00
2018-09-18T09:30:37.468Z,4336.00
2018-09-18T09:31:37.620Z,4340.00
2018-09-18T09:32:37.764Z,4336.00
2018-09-18T09:33:37.921Z,4340.00
2018-09-18T09:34:38.079Z,4336.00
2018-09-18T09:35:38.237Z,4332.00
2018-09-18T09:36:38.397Z,4340.00
2018-09-18T09:37:38.548Z,4340.00
2018-09-18T09:38:38.772Z,4344.00
2018-09-18T09:39:38.864Z,4340.00
2018-09-18T09:40:39.021Z,4340.00
2018-09-18T09:41:39.176Z,4336.00
2018-09-18T09:42:39.334Z,4340.00
2018-09-18T09:43:39.521Z,4344.00
2018-09-18T09:44:39.645Z,4352.00
2018-09-18T09:45:39.808Z,4352.00
2018-09-18T09:46:39.958Z,4356.00
2018-09-18T09:47:40.115Z,4356.00
2018-09-18T09:48:40.274Z,4360.00
2018-09-18T09:49:40.431Z,4364.00
2018-09-18T09:50:40.588Z,4364.00
2018-09-18T09:51:40.795Z,4364.00
2018-09-18T09:52:40.902Z,4364.00
2018-09-18T09:53:41.062Z,4372.00
2018-09-18T09:54:41.221Z,4380.00
2018-09-18T09:55:41.377Z,4384.00
2018-09-18T09:56:41.558Z,4388.00
2018-09-18T09:57:41.695Z,4388.00
2018-09-18T09:58:41.850Z,4392.00
2018-09-18T09:59:42.008Z,4392.00
2018-09-18T10:00:42.164Z,4380.00
2018-09-18T10:01:42.333Z,4380.00
2018-09-18T10:02:42.529Z,4384.00
2018-09-18T10:03:42.639Z,4384.00
2018-09-18T10:04:42.799Z,4380.00
2018-09-18T10:05:42.955Z,4380.00
2018-09-18T10:06:43.113Z,4384.00
2018-09-18T10:07:43.278Z,4384.00
2018-09-18T10:08:43.427Z,4388.00
2018-09-18T10:09:43.587Z,4388.00
2018-09-18T10:10:43.851Z,4384.00
2018-09-18T10:11:43.907Z,4384.00
2018-09-18T10:12:44.068Z,4384.00
2018-09-18T10:13:44.251Z,4392.00
2018-09-18T10:14:44.405Z,4396.00
2018-09-18T10:15:44.587Z,4396.00
2018-09-18T10:16:44.703Z,4404.00
2018-09-18T10:17:44.989Z,4400.00
2018-09-18T10:18:45.021Z,4396.00
2018-09-18T10:19:45.178Z,4404.00
2018-09-18T10:20:45.339Z,4400.00
2018-09-18T10:21:45.498Z,4404.00
2018-09-18T10:22:45.661Z,4404.00
2018-09-18T10:23:45.819Z,4404.00
2018-09-18T10:24:45.985Z,4400.00
2018-09-18T10:25:46.149Z,4404.00
2018-09-18T10:26:46.313Z,4404.00
2018-09-18T10:27:46.457Z,4412.00
2018-09-18T10:28:46.615Z,4412.00
2018-09-18T10:29:46.775Z,4412.00
2018-09-18T10:30:46.937Z,4412.00
2018-09-18T10:31:47.118Z,4420.00
2018-09-18T10:32:47.409Z,4424.00
2018-09-18T10:33:47.411Z,4424.00
2018-09-18T10:34:47.588Z,4428.00
2018-09-18T10:35:47.741Z,4420.00
2018-09-18T10:36:47.892Z,4424.00
2018-09-18T10:37:48.053Z,4428.00
2018-09-18T10:38:48.211Z,4436.00
2018-09-18T10:39:48.392Z,4436.00
2018-09-18T10:40:48.597Z,4436.00
2018-09-18T10:41:48.759Z,4436.00
2018-09-18T10:42:48.919Z,4432.00
2018-09-18T10:43:49.034Z,4448.00
2018-09-18T10:44:49.192Z,4448.00
2018-09-18T10:45:49.326Z,4440.00
2018-09-18T18:23:13.975Z,0.00
2018-09-18T18:24:14.130Z,0.00
2018-09-18T18:25:14.251Z,0.00
2018-09-18T18:26:14.321Z,0.00
2018-09-18T18:27:14.489Z,0.00
2018-09-18T18:28:14.659Z,0.00
2018-09-18T18:29:14.943Z,0.00
2018-09-18T18:30:15.047Z,0.00
2018-09-18T18:31:15.208Z,0.00
2018-09-18T18:32:15.352Z,0.00
2018-09-18T18:33:15.532Z,0.00
2018-09-18T18:34:15.665Z,0.00
2018-09-18T18:35:15.823Z,0.00
2018-09-18T18:36:15.995Z,0.00
2018-09-18T18:37:16.083Z,0.00
2018-09-18T18:38:16.276Z,0.00
2018-09-18T18:39:16.394Z,0.00
2018-09-18T18:40:16.438Z,0.00
2018-09-18T18:41:16.754Z,0.00
2018-09-18T18:42:16.890Z,0.00
2018-09-18T18:43:16.997Z,0.00
2018-09-18T18:44:17.155Z,0.00
2018-09-18T18:45:17.292Z,0.00
2018-09-18T18:46:17.474Z,0.00
2018-09-18T18:47:17.691Z,0.00
2018-09-18T18:48:17.937Z,0.00
2018-09-18T18:49:17.958Z,0.00
2018-09-18T18:50:18.087Z,0.00
2018-09-18T18:51:18.243Z,0.00
2018-09-18T18:52:18.404Z,0.00
2018-09-18T18:53:18.564Z,0.00
2018-09-18T18:54:18.751Z,0.00
2018-09-18T18:55:18.918Z,0.00
2018-09-18T18:56:19.110Z,0.00
2018-09-18T18:57:19.247Z,0.00
2018-09-18T18:58:19.396Z,0.00
2018-09-18T18:59:19.780Z,0.00
2018-09-18T19:00:19.717Z,0.00
2018-09-18T19:01:19.850Z,0.00
2018-09-18T19:02:19.973Z,0.00
2018-09-18T19:03:20.121Z,0.00
2018-09-18T19:04:20.283Z,0.00
2018-09-18T19:05:20.426Z,0.00
2018-09-18T19:06:20.553Z,0.00
2018-09-18T19:07:20.662Z,0.00
2018-09-18T19:08:20.776Z,0.00
2018-09-18T19:09:20.918Z,0.00
2018-09-18T19:10:21.103Z,0.00
2018-09-18T19:11:21.267Z,0.00
2018-09-18T19:12:21.469Z,0.00
2018-09-18T19:13:21.598Z,0.00
2018-09-18T19:14:21.758Z,0.00
2018-09-18T19:15:21.893Z,0.00
2018-09-18T19:16:22.083Z,0.00
2018-09-18T19:17:22.251Z,0.00
2018-09-18T19:18:22.417Z,0.00
2018-09-18T19:19:22.569Z,0.00
2018-09-18T19:20:22.693Z,0.00
2018-09-18T19:21:23.515Z,0.00
2018-09-18T19:22:23.029Z,0.00
2018-09-18T19:23:23.179Z,0.00
2018-09-18T19:24:23.327Z,0.00
2018-09-18T19:25:23.486Z,0.00
2018-09-18T19:26:23.649Z,0.00
2018-09-18T19:27:23.839Z,0.00
2018-09-18T19:28:23.995Z,0.00
2018-09-18T19:29:24.194Z,0.00
2018-09-18T19:30:24.339Z,0.00
2018-09-18T19:31:24.493Z,0.00
2018-09-18T19:32:24.663Z,0.00
2018-09-18T19:33:25.025Z,0.00
2018-09-18T19:34:25.008Z,0.00
2018-09-18T19:35:25.132Z,0.00
2018-09-18T19:36:25.286Z,0.00
2018-09-18T19:37:25.434Z,0.00
2018-09-18T19:38:25.592Z,0.00
2018-09-18T19:39:25.726Z,0.00
2018-09-18T19:40:25.859Z,0.00
2018-09-18T19:41:26.015Z,0.00
2018-09-18T19:42:26.195Z,0.00
2018-09-18T19:43:26.345Z,0.00
2018-09-18T19:44:26.463Z,0.00
2018-09-18T19:45:26.628Z,0.00
2018-09-18T19:46:26.814Z,0.00
2018-09-18T19:47:26.947Z,0.00
2018-09-18T19:48:27.127Z,0.00
2018-09-18T19:49:27.259Z,0.00
2018-09-18T19:50:27.493Z,0.00
2018-09-18T19:51:27.599Z,0.00
2018-09-18T19:52:27.869Z,0.00
2018-09-18T19:53:27.957Z,0.00
2018-09-18T19:54:28.095Z,0.00
2018-09-18T19:55:28.283Z,0.00
2018-09-18T19:56:28.471Z,0.00
2018-09-18T19:57:28.699Z,0.00
2018-09-18T19:58:28.770Z,0.00
2018-09-18T19:59:28.919Z,0.00
2018-09-18T20:00:29.045Z,0.00
2018-09-18T20:01:29.222Z,0.00
2018-09-18T20:02:29.339Z,0.00
2018-09-18T20:03:29.450Z,0.00
2018-09-18T20:04:29.647Z,0.00
2018-09-18T20:05:29.796Z,0.00
2018-09-18T20:06:29.959Z,0.00
2018-09-18T20:07:30.131Z,0.00
2018-09-18T20:08:30.327Z,0.00
2018-09-18T20:09:30.557Z,0.00
2018-09-18T20:10:30.597Z,0.00
2018-09-18T20:11:30.784Z,0.00
2018-09-18T20:12:30.972Z,0.00
2018-09-18T20:13:31.120Z,0.00
2018-09-18T20:14:31.281Z,0.00
2018-09-18T20:15:31.403Z,0.00
2018-09-18T20:16:31.536Z,0.00
2018-09-18T20:17:31.702Z,0.00
2018-09-18T20:18:31.802Z,0.00
2018-09-18T20:19:31.986Z,0.00
2018-09-18T20:20:32.119Z,0.00
2018-09-18T20:21:32.305Z,0.00